Time;durP1;ratioP1;P1;durP2;ratioP2;P2;SDS_P1;SDS_P2;PMS_P1;PMS_P2;Temp;Humidity;BMP_temperature;BMP_pressure;BME280_temperature;BME280_humidity;BME280_pressure;Samples;Min_cycle;Max_cycle;Signal;HPM_P1;HPM_P2
2024/02/03 00:00:24;;;;;;;21.97;17.00;;;9.30;99.90;;;;;;5094259;28;20474;-65
2024/02/03 00:02:51;;;;;;;24.53;18.37;;;9.40;99.90;;;;;;5094507;28;20540;-65
2024/02/03 00:05:18;;;;;;;29.55;18.40;;;9.30;99.90;;;;;;5094002;28;20442;-66
2024/02/03 00:07:46;;;;;;;26.03;17.50;;;9.40;99.90;;;;;;5093945;28;20251;-66
2024/02/03 00:10:13;;;;;;;30.02;19.38;;;9.40;99.90;;;;;;5093756;28;20449;-66
2024/02/03 00:12:40;;;;;;;25.70;18.70;;;9.40;99.90;;;;;;5093584;28;20325;-66
2024/02/03 00:15:08;;;;;;;27.65;18.88;;;9.40;99.90;;;;;;5094299;28;20489;-66
2024/02/03 00:17:35;;;;;;;28.38;18.60;;;9.40;99.90;;;;;;5093379;28;20774;-63
2024/02/03 00:20:02;;;;;;;25.52;18.10;;;9.40;99.90;;;;;;5094204;28;20291;-65
2024/02/03 00:22:29;;;;;;;25.38;16.73;;;9.40;99.90;;;;;;5093911;28;20265;-64
2024/02/03 00:24:57;;;;;;;26.50;17.60;;;9.40;99.90;;;;;;5093740;28;20272;-64
2024/02/03 00:27:24;;;;;;;28.07;20.30;;;9.40;99.90;;;;;;5093526;28;21030;-64
2024/02/03 00:29:51;;;;;;;25.23;18.17;;;9.30;99.90;;;;;;5097758;28;20445;-65
2024/02/03 00:32:18;;;;;;;30.92;20.60;;;9.40;99.90;;;;;;5097962;28;20442;-59
2024/02/03 00:34:46;;;;;;;29.67;20.67;;;9.40;99.90;;;;;;5097167;28;20294;-63
2024/02/03 00:37:13;;;;;;;27.08;19.17;;;9.40;99.90;;;;;;5097164;28;20474;-62
2024/02/03 00:39:42;;;;;;;25.92;18.58;;;9.40;99.90;;;;;;5097324;28;20261;-63
2024/02/03 00:42:10;;;;;;;29.10;19.25;;;9.40;99.90;;;;;;5097618;28;20228;-64
2024/02/03 00:44:38;;;;;;;34.42;19.65;;;9.50;99.90;;;;;;5098218;28;20254;-63
2024/02/03 00:47:05;;;;;;;25.77;19.00;;;9.50;99.90;;;;;;5097700;28;20251;-66
2024/02/03 00:49:32;;;;;;;28.60;19.20;;;9.50;99.90;;;;;;5097628;28;21027;-65
2024/02/03 00:51:59;;;;;;;30.23;20.13;;;9.50;99.90;;;;;;5097763;28;20549;-65
2024/02/03 00:54:26;;;;;;;25.03;18.90;;;9.50;99.90;;;;;;5097702;28;20200;-65
2024/02/03 00:56:53;;;;;;;30.55;20.45;;;9.50;99.90;;;;;;5097267;28;20492;-65
2024/02/03 00:59:21;;;;;;;29.60;19.47;;;9.60;99.90;;;;;;5096783;28;20311;-64
2024/02/03 01:01:48;;;;;;;24.25;18.17;;;9.60;99.90;;;;;;5097016;28;20995;-64
2024/02/03 01:04:15;;;;;;;24.67;17.45;;;9.60;99.90;;;;;;5097936;28;20208;-64
2024/02/03 01:06:42;;;;;;;25.90;16.65;;;9.60;99.90;;;;;;5097351;28;20208;-62
2024/02/03 01:09:09;;;;;;;27.13;19.80;;;9.70;99.90;;;;;;5097031;28;20201;-62
2024/02/03 01:11:36;;;;;;;27.13;19.10;;;9.70;99.90;;;;;;5096677;28;20529;-64
2024/02/03 01:14:02;;;;;;;20.43;13.80;;;9.70;99.90;;;;;;5096595;28;20477;-63
2024/02/03 01:16:31;;;;;;;28.43;17.97;;;9.70;99.90;;;;;;5096374;28;20530;-63
2024/02/03 01:18:58;;;;;;;25.93;18.00;;;9.70;99.90;;;;;;5096448;28;20568;-64
2024/02/03 01:21:24;;;;;;;23.15;17.40;;;9.70;99.90;;;;;;5097047;28;20537;-64
2024/02/03 01:23:51;;;;;;;24.40;17.00;;;9.70;99.90;;;;;;5097406;28;20200;-63
2024/02/03 01:26:18;;;;;;;26.33;20.10;;;9.80;99.90;;;;;;5096987;28;20466;-63
2024/02/03 01:28:45;;;;;;;27.53;17.47;;;9.80;99.90;;;;;;5096423;28;20790;-64
2024/02/03 01:31:12;;;;;;;25.57;17.77;;;9.80;99.90;;;;;;5096490;28;20448;-63
2024/02/03 01:33:40;;;;;;;25.90;17.63;;;9.80;99.90;;;;;;5096492;28;20529;-64
2024/02/03 01:36:09;;;;;;;25.43;17.70;;;9.80;99.90;;;;;;5096442;28;20445;-64
2024/02/03 01:38:36;;;;;;;23.90;17.57;;;9.80;99.90;;;;;;5096240;28;20484;-64
2024/02/03 01:41:03;;;;;;;21.77;15.17;;;9.80;99.90;;;;;;5095786;28;20470;-63
2024/02/03 01:43:30;;;;;;;20.63;14.70;;;9.80;99.90;;;;;;5096449;28;20529;-63
2024/02/03 01:45:57;;;;;;;22.77;16.23;;;9.80;99.90;;;;;;5096214;28;20529;-64
2024/02/03 01:48:25;;;;;;;25.40;17.30;;;9.90;99.90;;;;;;5095924;28;20807;-63
2024/02/03 01:50:54;;;;;;;20.40;14.73;;;9.90;99.90;;;;;;5095646;28;20522;-64
2024/02/03 01:53:21;;;;;;;22.63;16.33;;;9.90;99.90;;;;;;5095759;28;20916;-64
2024/02/03 01:55:51;;;;;;;21.47;16.50;;;9.90;99.90;;;;;;5095711;28;20447;-65
2024/02/03 01:58:18;;;;;;;21.47;16.50;;;9.90;99.90;;;;;;5096000;28;20483;-64
2024/02/03 02:00:46;;;;;;;25.57;17.50;;;9.90;99.90;;;;;;5096012;28;20438;-64
2024/02/03 02:03:14;;;;;;;22.27;15.33;;;9.90;99.90;;;;;;5095976;28;20891;-64
2024/02/03 02:05:41;;;;;;;21.67;16.00;;;9.90;99.90;;;;;;5095563;28;20470;-62
2024/02/03 02:08:09;;;;;;;22.00;15.47;;;10.00;99.90;;;;;;5095523;28;20988;-65
2024/02/03 02:10:36;;;;;;;22.37;16.07;;;10.00;99.90;;;;;;5095798;28;20959;-64
2024/02/03 02:13:03;;;;;;;22.37;14.43;;;10.00;99.90;;;;;;5096272;28;20435;-65
2024/02/03 02:15:30;;;;;;;21.95;15.43;;;10.00;99.90;;;;;;5095764;28;20438;-63
2024/02/03 02:17:58;;;;;;;25.13;16.43;;;10.00;99.90;;;;;;5095338;28;20620;-66
2024/02/03 02:20:26;;;;;;;22.70;15.57;;;10.00;99.90;;;;;;5096245;28;20439;-63
2024/02/03 02:22:53;;;;;;;19.63;15.40;;;10.00;99.90;;;;;;5095856;28;21034;-65
2024/02/03 02:25:20;;;;;;;19.47;14.80;;;10.00;99.90;;;;;;5095823;28;20452;-65
2024/02/03 02:27:47;;;;;;;19.33;15.90;;;10.00;99.90;;;;;;5095436;28;20549;-64
2024/02/03 02:30:14;;;;;;;21.67;15.00;;;10.00;99.90;;;;;;5095133;28;20801;-63
2024/02/03 02:32:41;;;;;;;23.50;15.20;;;10.00;99.90;;;;;;5095052;28;20449;-63
2024/02/03 02:35:08;;;;;;;20.40;15.00;;;10.00;99.90;;;;;;5094936;28;20449;-64
2024/02/03 02:37:37;;;;;;;20.97;15.70;;;9.90;99.90;;;;;;5095264;28;20839;-66
2024/02/03 02:40:04;;;;;;;23.70;15.57;;;9.90;99.90;;;;;;5094812;28;20999;-64
2024/02/03 02:42:31;;;;;;;23.07;14.03;;;9.90;99.90;;;;;;5094852;28;20478;-65
2024/02/03 02:44:58;;;;;;;20.07;15.37;;;9.90;99.90;;;;;;5094783;28;20521;-65
2024/02/03 02:47:25;;;;;;;21.27;14.87;;;9.90;99.90;;;;;;5094756;28;20545;-66
2024/02/03 02:49:51;;;;;;;19.50;13.53;;;9.80;99.90;;;;;;5095005;28;20526;-65
2024/02/03 02:52:19;;;;;;;20.20;14.13;;;9.80;99.90;;;;;;5093939;28;20524;-65
2024/02/03 02:54:47;;;;;;;21.37;14.83;;;9.80;99.90;;;;;;5095428;28;20446;-65
2024/02/03 02:57:14;;;;;;;19.20;15.07;;;9.80;99.90;;;;;;5095165;28;20466;-64
2024/02/03 02:59:42;;;;;;;25.20;14.80;;;9.70;99.90;;;;;;5095260;28;20470;-65
2024/02/03 03:02:09;;;;;;;23.80;15.90;;;9.70;99.90;;;;;;5095341;28;20442;-64
2024/02/03 03:04:36;;;;;;;26.65;16.02;;;9.70;99.90;;;;;;5095284;28;20464;-65
2024/02/03 03:07:02;;;;;;;23.08;16.98;;;9.70;99.90;;;;;;5095197;28;20792;-65
2024/02/03 03:09:29;;;;;;;20.13;13.73;;;9.70;99.90;;;;;;5094455;28;20569;-64
2024/02/03 03:11:57;;;;;;;20.23;13.87;;;9.70;99.90;;;;;;5094447;28;20932;-65
2024/02/03 03:14:24;;;;;;;23.93;16.00;;;9.60;99.90;;;;;;5094605;28;20441;-66
2024/02/03 03:16:51;;;;;;;24.73;16.27;;;9.60;99.90;;;;;;5094094;28;20441;-65
2024/02/03 03:19:18;;;;;;;20.60;14.60;;;9.60;99.90;;;;;;5094262;28;20462;-63
2024/02/03 03:21:44;;;;;;;22.15;15.18;;;9.60;99.90;;;;;;5094192;28;20453;-63
2024/02/03 03:24:11;;;;;;;22.42;15.43;;;9.50;99.90;;;;;;5094141;28;20197;-63
2024/02/03 03:26:42;;;;;;;21.50;16.47;;;9.50;99.90;;;;;;5094130;28;20200;-63
2024/02/03 03:29:11;;;;;;;28.10;16.00;;;9.50;99.90;;;;;;5094129;28;20492;-64
2024/02/03 03:31:38;;;;;;;23.63;14.30;;;9.50;99.90;;;;;;5118128;22;20449;-63
2024/02/03 03:34:05;;;;;;;22.40;14.15;;;9.40;99.90;;;;;;5106030;28;20423;-64
2024/02/03 03:36:31;;;;;;;27.33;16.50;;;9.40;99.90;;;;;;5106631;28;20204;-62
2024/02/03 03:38:58;;;;;;;23.00;14.53;;;9.40;99.90;;;;;;5105386;28;20524;-63
2024/02/03 03:41:25;;;;;;;21.08;15.68;;;9.40;99.90;;;;;;5106103;28;20438;-64
2024/02/03 03:43:52;;;;;;;25.70;15.90;;;9.40;99.90;;;;;;5107520;28;20200;-63
2024/02/03 03:46:20;;;;;;;23.43;16.83;;;9.30;99.90;;;;;;5108655;28;20202;-63
2024/02/03 03:48:46;;;;;;;20.33;13.70;;;9.30;99.90;;;;;;5107004;28;20497;-63
2024/02/03 03:51:12;;;;;;;21.20;14.77;;;9.30;99.90;;;;;;5103936;28;20200;-65
2024/02/03 03:53:39;;;;;;;20.25;13.93;;;9.30;99.90;;;;;;5103701;28;20229;-64
2024/02/03 03:56:07;;;;;;;21.38;13.57;;;9.30;99.90;;;;;;5103939;28;20207;-63
2024/02/03 03:58:33;;;;;;;21.20;13.90;;;9.20;99.90;;;;;;5103710;28;20216;-63
2024/02/03 04:01:00;;;;;;;25.80;15.35;;;9.20;99.90;;;;;;5105462;28;20223;-63
2024/02/03 04:03:28;;;;;;;22.05;14.15;;;9.20;99.90;;;;;;5105467;28;20220;-64
2024/02/03 04:05:55;;;;;;;19.58;13.50;;;9.20;99.90;;;;;;5106326;28;20689;-64
2024/02/03 04:08:22;;;;;;;20.50;12.82;;;9.20;99.90;;;;;;5109546;28;20210;-64
2024/02/03 04:13:06;;;;;;;14.70;10.40;;;9.20;99.90;;;;;;5106961;27;20570;-63
2024/02/03 04:15:33;;;;;;;21.53;12.63;;;9.20;99.90;;;;;;5106161;28;20749;-64
2024/02/03 04:18:00;;;;;;;15.77;11.65;;;9.20;99.90;;;;;;5108150;28;20426;-64
2024/02/03 04:20:27;;;;;;;16.55;11.73;;;9.20;99.90;;;;;;5105477;28;20200;-63
2024/02/03 04:22:54;;;;;;;16.25;11.40;;;9.20;99.90;;;;;;5092344;28;20223;-64
2024/02/03 04:25:20;;;;;;;16.02;11.38;;;9.20;99.90;;;;;;5091420;28;20204;-64
2024/02/03 04:27:47;;;;;;;17.00;11.25;;;9.30;99.90;;;;;;5092704;28;20219;-64
2024/02/03 04:30:16;;;;;;;18.67;10.65;;;9.30;99.90;;;;;;5092054;28;20196;-63
2024/02/03 04:32:43;;;;;;;16.13;10.60;;;9.30;99.90;;;;;;5092213;28;20303;-63
2024/02/03 04:35:10;;;;;;;17.20;10.65;;;9.30;99.90;;;;;;5091939;28;20686;-63
2024/02/03 04:37:37;;;;;;;15.45;10.40;;;9.30;99.90;;;;;;5091640;28;20208;-63
2024/02/03 04:40:06;;;;;;;17.05;11.05;;;9.30;99.90;;;;;;5092080;28;20197;-62
2024/02/03 04:42:34;;;;;;;12.93;9.65;;;9.30;99.90;;;;;;5095130;28;20232;-64
2024/02/03 04:45:00;;;;;;;14.13;9.20;;;9.30;99.90;;;;;;5100266;28;20197;-64
2024/02/03 04:47:28;;;;;;;14.02;10.25;;;9.30;99.90;;;;;;5098777;28;20460;-64
2024/02/03 04:49:55;;;;;;;15.80;10.20;;;9.30;99.90;;;;;;5101617;28;20211;-64
2024/02/03 04:52:22;;;;;;;13.20;9.50;;;9.30;99.90;;;;;;5101990;28;20486;-62
2024/02/03 04:54:49;;;;;;;15.20;10.97;;;9.30;99.90;;;;;;5101258;28;20688;-64
2024/02/03 04:57:16;;;;;;;15.60;10.30;;;9.30;99.90;;;;;;5096453;28;20435;-63
2024/02/03 04:59:44;;;;;;;13.27;9.57;;;9.30;99.90;;;;;;5095905;28;20943;-63
2024/02/03 05:02:11;;;;;;;14.63;10.07;;;9.30;99.90;;;;;;5092433;28;20219;-63
2024/02/03 05:04:39;;;;;;;12.55;8.27;;;9.30;99.90;;;;;;5094100;28;20871;-62
2024/02/03 05:07:05;;;;;;;14.23;10.00;;;9.30;99.90;;;;;;5096209;28;20688;-64
2024/02/03 05:09:32;;;;;;;16.95;9.05;;;9.30;99.90;;;;;;5094604;28;20447;-62
2024/02/03 05:11:59;;;;;;;14.32;10.38;;;9.30;99.90;;;;;;5098443;28;20717;-64
2024/02/03 05:14:26;;;;;;;14.40;9.40;;;9.20;99.90;;;;;;5096249;28;20211;-63
2024/02/03 05:16:52;;;;;;;12.20;9.82;;;9.20;99.90;;;;;;5093959;28;20254;-64
2024/02/03 05:19:19;;;;;;;14.05;10.70;;;9.20;99.90;;;;;;5093387;28;20201;-62
2024/02/03 05:21:47;;;;;;;16.33;10.43;;;9.20;99.90;;;;;;5093120;28;20216;-63
2024/02/03 05:24:14;;;;;;;14.70;10.52;;;9.20;99.90;;;;;;5080755;28;20675;-63
2024/02/03 05:26:41;;;;;;;13.27;8.60;;;9.20;99.90;;;;;;5078722;28;20205;-63
2024/02/03 05:29:07;;;;;;;13.75;9.40;;;9.20;99.90;;;;;;5078020;28;20444;-63
2024/02/03 05:31:34;;;;;;;14.25;9.88;;;9.20;99.90;;;;;;5077495;28;20221;-63
2024/02/03 05:34:01;;;;;;;16.73;9.25;;;9.20;99.90;;;;;;5077350;28;20201;-62
2024/02/03 05:36:28;;;;;;;12.52;9.23;;;9.20;99.90;;;;;;5077144;28;20197;-62
2024/02/03 05:38:56;;;;;;;10.65;8.13;;;9.20;99.90;;;;;;5076909;28;20209;-65
2024/02/03 05:41:22;;;;;;;13.10;8.10;;;9.20;99.90;;;;;;5076656;28;20197;-63
2024/02/03 05:43:49;;;;;;;10.45;8.25;;;9.20;99.90;;;;;;5076705;28;20439;-63
2024/02/03 05:46:16;;;;;;;11.80;8.60;;;9.20;99.90;;;;;;5076973;28;20208;-62
2024/02/03 05:48:42;;;;;;;13.30;8.27;;;9.20;99.90;;;;;;5076384;28;20556;-63
2024/02/03 05:51:10;;;;;;;11.73;7.15;;;9.20;99.90;;;;;;5076569;28;20443;-62
2024/02/03 05:53:37;;;;;;;10.03;7.17;;;9.20;99.90;;;;;;5076594;28;20221;-63
2024/02/03 05:56:06;;;;;;;9.32;7.20;;;9.10;99.90;;;;;;5076510;28;20446;-64
2024/02/03 05:58:34;;;;;;;11.77;6.85;;;9.20;99.90;;;;;;5076386;28;20207;-64
2024/02/03 06:01:01;;;;;;;7.93;5.73;;;9.10;99.90;;;;;;5076851;28;20212;-64
2024/02/03 06:03:28;;;;;;;9.00;6.37;;;9.20;99.90;;;;;;5076813;28;20467;-63
2024/02/03 06:05:54;;;;;;;10.97;7.20;;;9.20;99.90;;;;;;5077417;28;20447;-64
2024/02/03 06:08:21;;;;;;;8.27;5.75;;;9.20;99.90;;;;;;5077691;28;20443;-64
2024/02/03 06:10:48;;;;;;;8.73;6.50;;;9.20;99.90;;;;;;5076596;28;20205;-64
2024/02/03 06:13:20;;;;;;;7.50;5.80;;;9.20;99.90;;;;;;5077117;28;20229;-61
2024/02/03 06:15:47;;;;;;;9.85;6.20;;;9.20;99.90;;;;;;5079954;28;20247;-64
2024/02/03 06:18:14;;;;;;;9.68;6.22;;;9.20;99.90;;;;;;5083094;28;20211;-63
2024/02/03 06:20:41;;;;;;;8.70;6.97;;;9.20;99.90;;;;;;5080410;28;20211;-63
2024/02/03 06:23:07;;;;;;;10.15;7.25;;;9.20;99.90;;;;;;5079942;28;20217;-64
2024/02/03 06:25:34;;;;;;;10.35;7.22;;;9.20;99.90;;;;;;5077840;28;20201;-64
2024/02/03 06:28:01;;;;;;;7.20;5.38;;;9.20;99.90;;;;;;5077036;28;20205;-63
2024/02/03 06:30:29;;;;;;;7.78;5.07;;;9.20;99.90;;;;;;5076173;28;20207;-64
2024/02/03 06:32:56;;;;;;;8.25;6.25;;;9.10;99.90;;;;;;5076678;28;20224;-63
2024/02/03 06:35:22;;;;;;;8.57;6.40;;;9.20;99.90;;;;;;5075514;28;20212;-64
2024/02/03 06:37:49;;;;;;;10.48;7.70;;;9.20;99.90;;;;;;5076093;28;20679;-64
2024/02/03 06:40:16;;;;;;;10.73;6.90;;;9.20;99.90;;;;;;5076063;28;20205;-64
2024/02/03 06:42:43;;;;;;;11.40;6.93;;;9.10;99.90;;;;;;5075907;28;20221;-63
2024/02/03 06:45:11;;;;;;;9.45;6.97;;;9.10;99.90;;;;;;5075641;28;20215;-64
2024/02/03 06:47:39;;;;;;;8.95;6.35;;;9.10;99.90;;;;;;5075869;28;20233;-62
2024/02/03 06:50:06;;;;;;;9.73;6.68;;;9.10;99.90;;;;;;5076256;28;20207;-64
2024/02/03 06:52:33;;;;;;;11.35;7.40;;;9.10;99.90;;;;;;5075762;28;20744;-64
2024/02/03 06:55:00;;;;;;;9.82;6.20;;;9.10;99.90;;;;;;5077162;28;20205;-64
2024/02/03 06:57:27;;;;;;;10.60;6.97;;;9.10;99.90;;;;;;5076478;28;20201;-64
2024/02/03 06:59:53;;;;;;;11.05;6.35;;;9.10;99.90;;;;;;5076410;28;20667;-64
2024/02/03 07:02:21;;;;;;;8.32;6.15;;;9.10;99.90;;;;;;5076767;28;20217;-64
2024/02/03 07:04:50;;;;;;;6.90;4.53;;;9.10;99.90;;;;;;5077195;28;20211;-64
2024/02/03 07:07:16;;;;;;;9.18;6.53;;;9.20;99.90;;;;;;5075880;28;20208;-63
2024/02/03 07:09:43;;;;;;;7.28;4.95;;;9.10;99.90;;;;;;5074916;28;20201;-64
2024/02/03 07:12:10;;;;;;;9.18;6.05;;;9.10;99.90;;;;;;5074214;28;20225;-63
2024/02/03 07:14:37;;;;;;;6.35;4.65;;;9.20;99.90;;;;;;5074498;28;20679;-64
2024/02/03 07:17:04;;;;;;;6.85;5.22;;;9.20;99.90;;;;;;5074942;28;20208;-63
2024/02/03 07:19:31;;;;;;;7.05;5.13;;;9.20;99.90;;;;;;5075960;28;20208;-62
2024/02/03 07:21:59;;;;;;;5.63;4.53;;;9.20;99.90;;;;;;5075503;28;20304;-64
2024/02/03 07:24:26;;;;;;;6.32;4.95;;;9.20;99.90;;;;;;5075794;28;20663;-62
2024/02/03 07:26:52;;;;;;;7.40;5.53;;;9.20;99.90;;;;;;5077893;28;20681;-62
2024/02/03 07:29:19;;;;;;;6.80;4.97;;;9.30;99.90;;;;;;5082103;28;20200;-63
2024/02/03 07:31:46;;;;;;;6.50;5.43;;;9.30;99.90;;;;;;5079589;28;20224;-63
2024/02/03 07:34:13;;;;;;;6.45;5.10;;;9.30;99.90;;;;;;5077417;28;20204;-63
2024/02/03 07:36:39;;;;;;;7.03;5.17;;;9.30;99.90;;;;;;5076685;28;20702;-64
2024/02/03 07:39:08;;;;;;;7.03;5.37;;;9.40;99.90;;;;;;5077236;28;20542;-65
2024/02/03 07:41:35;;;;;;;6.72;5.28;;;9.40;99.90;;;;;;5075946;28;20444;-64
2024/02/03 07:44:01;;;;;;;5.37;4.30;;;9.40;99.90;;;;;;5076025;28;20197;-65
2024/02/03 07:46:28;;;;;;;5.37;4.33;;;9.40;99.90;;;;;;5076042;28;20443;-64
2024/02/03 07:48:55;;;;;;;8.00;5.90;;;9.40;99.90;;;;;;5076088;28;20539;-63
2024/02/03 07:51:22;;;;;;;7.40;5.30;;;9.40;99.90;;;;;;5075969;28;20439;-63
2024/02/03 07:53:49;;;;;;;6.40;4.90;;;9.50;99.90;;;;;;5076449;28;20478;-63
2024/02/03 07:56:17;;;;;;;6.70;5.17;;;9.50;99.90;;;;;;5077176;28;20455;-64
2024/02/03 07:58:45;;;;;;;7.07;5.60;;;9.50;99.90;;;;;;5076886;28;20443;-63
2024/02/03 08:01:12;;;;;;;6.80;5.13;;;9.50;99.90;;;;;;5079996;28;20251;-64
2024/02/03 08:03:39;;;;;;;7.93;5.40;;;9.60;99.90;;;;;;5081398;28;20585;-64
2024/02/03 08:06:06;;;;;;;7.37;5.50;;;9.60;99.90;;;;;;5081086;28;20448;-64
2024/02/03 08:08:33;;;;;;;6.83;5.80;;;9.60;99.90;;;;;;5078955;28;20447;-63
2024/02/03 08:11:00;;;;;;;5.13;4.57;;;9.60;99.90;;;;;;5078785;28;20450;-63
2024/02/03 08:13:28;;;;;;;6.50;5.27;;;9.60;99.90;;;;;;5077500;28;20479;-62
2024/02/03 08:15:55;;;;;;;5.60;4.97;;;9.60;99.90;;;;;;5078756;28;20441;-63
2024/02/03 08:18:21;;;;;;;7.70;5.70;;;9.70;99.90;;;;;;5083765;28;20435;-62
2024/02/03 08:20:48;;;;;;;6.60;5.00;;;9.70;99.90;;;;;;5084231;28;20439;-63
2024/02/03 08:23:15;;;;;;;6.22;5.38;;;9.70;99.90;;;;;;5080512;28;20464;-64
2024/02/03 08:25:42;;;;;;;5.00;4.50;;;9.70;99.90;;;;;;5080381;28;20205;-64
2024/02/03 08:28:09;;;;;;;5.53;4.22;;;9.70;99.90;;;;;;5073327;28;20445;-64
2024/02/03 08:30:39;;;;;;;8.93;5.30;;;9.80;99.90;;;;;;5073297;28;20674;-63
2024/02/03 08:33:06;;;;;;;5.87;4.67;;;9.80;99.90;;;;;;5074273;28;20475;-64
2024/02/03 08:35:33;;;;;;;6.83;4.73;;;9.80;99.90;;;;;;5074054;28;20446;-64
2024/02/03 08:37:59;;;;;;;6.30;4.67;;;9.80;99.90;;;;;;5074781;28;20439;-64
2024/02/03 08:40:26;;;;;;;5.40;4.80;;;9.80;99.90;;;;;;5075517;28;20440;-63
2024/02/03 08:42:53;;;;;;;6.70;6.00;;;9.90;99.90;;;;;;5081372;28;20479;-62
2024/02/03 08:45:20;;;;;;;6.13;5.03;;;9.90;99.90;;;;;;5080225;28;20458;-64
2024/02/03 08:47:48;;;;;;;4.90;4.47;;;9.90;99.90;;;;;;5075962;28;20443;-62
2024/02/03 08:50:14;;;;;;;6.23;5.63;;;9.90;99.90;;;;;;5075395;28;20443;-63
2024/02/03 08:52:41;;;;;;;7.10;5.97;;;9.90;99.90;;;;;;5073935;28;20879;-63
2024/02/03 08:55:08;;;;;;;6.03;4.43;;;9.90;99.90;;;;;;5078278;28;20455;-63
2024/02/03 08:57:35;;;;;;;6.37;4.90;;;9.90;99.90;;;;;;5084676;28;20450;-64
2024/02/03 09:00:04;;;;;;;7.33;5.90;;;9.90;99.90;;;;;;5088451;28;20518;-64
2024/02/03 09:02:32;;;;;;;5.20;4.53;;;9.90;99.90;;;;;;5086684;28;20972;-64
2024/02/03 09:05:00;;;;;;;7.03;5.20;;;9.90;99.90;;;;;;5087433;28;20447;-62
2024/02/03 09:07:27;;;;;;;5.50;4.63;;;9.90;99.90;;;;;;5088679;28;20917;-63
2024/02/03 09:09:54;;;;;;;7.03;5.40;;;9.90;99.90;;;;;;5087929;28;20454;-63
2024/02/03 09:12:21;;;;;;;5.10;4.17;;;9.90;99.90;;;;;;5088586;28;20479;-64
2024/02/03 09:14:48;;;;;;;4.93;4.33;;;9.90;99.90;;;;;;5091169;28;20789;-63
2024/02/03 09:17:14;;;;;;;5.63;3.87;;;10.00;99.90;;;;;;5085453;28;20457;-64
2024/02/03 09:19:41;;;;;;;5.57;4.30;;;9.90;99.90;;;;;;5079467;28;20455;-63
2024/02/03 09:22:08;;;;;;;5.13;4.60;;;9.90;99.90;;;;;;5078569;28;20560;-64
2024/02/03 09:24:35;;;;;;;4.80;4.00;;;9.90;99.90;;;;;;5078841;28;20817;-62
2024/02/03 09:27:02;;;;;;;5.80;3.93;;;9.90;99.90;;;;;;5078231;28;20462;-62
2024/02/03 09:29:29;;;;;;;4.97;3.70;;;9.90;99.90;;;;;;5078363;28;20447;-63
2024/02/03 09:31:56;;;;;;;5.10;3.87;;;9.90;99.90;;;;;;5077158;28;20465;-63
2024/02/03 09:34:22;;;;;;;5.07;4.20;;;9.90;99.90;;;;;;5077854;28;20475;-63
2024/02/03 09:36:49;;;;;;;4.53;4.10;;;9.90;99.90;;;;;;5077329;28;20439;-62
2024/02/03 09:39:18;;;;;;;5.30;3.90;;;9.90;99.90;;;;;;5077639;28;20443;-63
2024/02/03 09:41:45;;;;;;;4.17;3.77;;;9.90;99.90;;;;;;5077261;28;20548;-61
2024/02/03 09:44:12;;;;;;;4.03;3.60;;;9.90;99.90;;;;;;5077757;28;20463;-64
2024/02/03 09:46:40;;;;;;;6.13;5.50;;;9.90;99.90;;;;;;5077886;28;20814;-65
2024/02/03 09:49:07;;;;;;;5.20;4.57;;;9.90;99.90;;;;;;5084940;28;20953;-63
2024/02/03 09:51:35;;;;;;;6.33;4.53;;;9.90;99.90;;;;;;5082589;28;20450;-64
2024/02/03 09:54:02;;;;;;;5.27;3.90;;;9.80;99.90;;;;;;5077908;28;21000;-63
2024/02/03 09:56:30;;;;;;;5.70;4.70;;;9.80;99.90;;;;;;5077292;28;20447;-63
2024/02/03 09:58:56;;;;;;;5.60;4.63;;;9.80;99.90;;;;;;5077303;28;20810;-63
2024/02/03 10:01:23;;;;;;;5.70;4.27;;;9.80;99.90;;;;;;5077661;28;20435;-63
2024/02/03 10:03:56;;;;;;;5.30;4.07;;;9.80;99.90;;;;;;5078562;28;20439;-62
2024/02/03 10:06:23;;;;;;;7.37;5.33;;;9.80;99.90;;;;;;5077140;28;20432;-65
2024/02/03 10:08:54;;;;;;;6.07;5.03;;;9.80;99.90;;;;;;5076344;28;20447;-65
2024/02/03 10:11:21;;;;;;;5.20;3.90;;;9.80;99.90;;;;;;5076579;28;20458;-63
2024/02/03 10:13:50;;;;;;;9.70;5.43;;;9.80;99.90;;;;;;5076522;28;20490;-64
2024/02/03 10:16:17;;;;;;;7.73;6.30;;;9.80;99.90;;;;;;5077539;28;20439;-64
2024/02/03 10:18:44;;;;;;;7.90;6.00;;;9.80;99.90;;;;;;5077320;28;20443;-63
2024/02/03 10:21:11;;;;;;;8.53;6.03;;;9.80;99.90;;;;;;5076713;28;20439;-63
2024/02/03 10:23:37;;;;;;;8.23;6.23;;;9.80;99.90;;;;;;5076471;28;20462;-62
2024/02/03 10:26:04;;;;;;;8.37;6.40;;;9.80;99.90;;;;;;5076458;28;20443;-63
2024/02/03 10:28:31;;;;;;;7.70;6.40;;;9.80;99.90;;;;;;5077491;28;20451;-65
2024/02/03 10:31:03;;;;;;;8.27;6.93;;;9.70;99.90;;;;;;5077927;28;20439;-66
2024/02/03 10:33:30;;;;;;;8.60;6.60;;;9.80;99.90;;;;;;5076650;28;20485;-65
2024/02/03 10:35:59;;;;;;;9.13;7.10;;;9.80;99.90;;;;;;5076450;28;20441;-67
2024/02/03 10:38:25;;;;;;;9.73;7.63;;;9.80;99.90;;;;;;5076377;28;20447;-66
2024/02/03 10:40:53;;;;;;;12.27;7.57;;;9.80;99.90;;;;;;5079221;28;20439;-65
2024/02/03 10:43:23;;;;;;;8.73;7.10;;;9.80;99.90;;;;;;5077104;28;20459;-64
2024/02/03 10:45:53;;;;;;;9.10;7.30;;;9.80;99.90;;;;;;5077603;28;20426;-66
2024/02/03 10:48:25;;;;;;;10.63;7.78;;;9.90;99.90;;;;;;5078331;28;20883;-66
2024/02/03 10:50:58;;;;;;;11.97;8.37;;;9.90;99.90;;;;;;5076604;28;20564;-66
2024/02/03 10:53:29;;;;;;;12.43;7.80;;;9.90;99.90;;;;;;5076478;28;20494;-65
2024/02/03 10:56:01;;;;;;;10.20;7.10;;;9.90;99.90;;;;;;5078067;28;20419;-67
2024/02/03 10:58:29;;;;;;;8.47;7.10;;;9.90;99.90;;;;;;5088981;28;20479;-65
2024/02/03 11:00:59;;;;;;;7.80;7.00;;;10.00;99.90;;;;;;5086548;28;20531;-66
2024/02/03 11:03:37;;;;;;;9.27;7.00;;;10.00;99.90;;;;;;5087559;28;20455;-67
2024/02/03 11:06:05;;;;;;;11.13;8.00;;;10.00;99.90;;;;;;5082069;28;20428;-65
2024/02/03 11:08:33;;;;;;;9.80;7.40;;;10.00;99.90;;;;;;5082656;28;20443;-66
2024/02/03 11:10:59;;;;;;;8.27;6.90;;;10.10;99.90;;;;;;5082980;28;20457;-67
2024/02/03 11:13:27;;;;;;;10.90;8.03;;;10.10;99.90;;;;;;5082347;28;20991;-63
2024/02/03 11:15:56;;;;;;;8.43;6.83;;;10.10;99.90;;;;;;5078751;28;20451;-65
2024/02/03 11:18:24;;;;;;;11.00;7.50;;;10.10;99.90;;;;;;5077765;28;20879;-64
2024/02/03 11:21:04;;;;;;;8.37;7.47;;;10.10;99.90;;;;;;5077659;28;20850;-63
2024/02/03 11:23:31;;;;;;;10.00;8.00;;;10.10;99.90;;;;;;5075518;28;20459;-66
2024/02/03 11:25:59;;;;;;;9.50;7.10;;;10.20;99.90;;;;;;5076228;28;20439;-64
2024/02/03 11:28:26;;;;;;;9.10;7.87;;;10.20;99.90;;;;;;5078167;28;20450;-66
2024/02/03 11:30:59;;;;;;;6.67;5.60;;;10.20;99.90;;;;;;5077647;28;20443;-66
2024/02/03 11:33:26;;;;;;;11.70;8.77;;;10.20;99.90;;;;;;5078583;28;20848;-64
2024/02/03 11:36:00;;;;;;;11.83;8.30;;;10.20;99.90;;;;;;5077852;28;20522;-64
2024/02/03 11:38:27;;;;;;;10.10;8.20;;;10.20;99.90;;;;;;5078532;28;20446;-65
2024/02/03 11:40:57;;;;;;;10.80;7.50;;;10.20;99.90;;;;;;5082123;28;20483;-64
2024/02/03 11:43:24;;;;;;;11.30;8.00;;;10.20;99.90;;;;;;5087685;28;20554;-65
2024/02/03 11:45:55;;;;;;;8.67;6.87;;;10.20;99.90;;;;;;5088405;28;20451;-63
2024/02/03 11:48:22;;;;;;;10.30;8.07;;;10.20;99.90;;;;;;5092268;28;20439;-63
2024/02/03 11:50:49;;;;;;;9.77;8.03;;;10.30;99.90;;;;;;5090441;28;20450;-64
2024/02/03 11:53:24;;;;;;;11.20;8.33;;;10.30;99.90;;;;;;5087130;28;20474;-64
2024/02/03 11:55:51;;;;;;;13.00;8.87;;;10.30;99.90;;;;;;5078526;28;20856;-65
2024/02/03 11:58:18;;;;;;;11.83;7.73;;;10.30;99.90;;;;;;5076098;28;20941;-64
2024/02/03 12:00:45;;;;;;;12.30;8.70;;;10.30;99.90;;;;;;5075855;28;20457;-65
2024/02/03 12:03:12;;;;;;;10.20;7.90;;;10.30;99.90;;;;;;5075229;28;20502;-65
2024/02/03 12:05:39;;;;;;;10.03;7.53;;;10.30;99.90;;;;;;5074865;28;20445;-65
2024/02/03 12:08:07;;;;;;;11.37;9.90;;;10.40;99.90;;;;;;5075369;28;20435;-64
2024/02/03 12:10:35;;;;;;;13.33;7.80;;;10.40;99.90;;;;;;5082844;28;20439;-64
2024/02/03 12:13:03;;;;;;;11.03;9.47;;;10.40;99.90;;;;;;5082511;28;20467;-64
2024/02/03 12:15:30;;;;;;;10.17;9.03;;;10.40;99.90;;;;;;5076253;28;20478;-64
2024/02/03 12:18:00;;;;;;;10.57;9.47;;;10.50;99.90;;;;;;5075992;28;20473;-65
2024/02/03 12:20:27;;;;;;;11.03;7.87;;;10.50;99.90;;;;;;5075192;28;20506;-65
2024/02/03 12:22:55;;;;;;;12.63;9.73;;;10.50;99.90;;;;;;5074916;28;21007;-66
2024/02/03 12:25:22;;;;;;;16.63;10.13;;;10.60;99.90;;;;;;5075044;28;20440;-64
2024/02/03 12:27:50;;;;;;;9.13;7.50;;;10.60;99.90;;;;;;5074963;28;20457;-64
2024/02/03 12:30:18;;;;;;;12.97;9.30;;;10.70;99.90;;;;;;5074703;28;20444;-65
2024/02/03 12:32:45;;;;;;;12.40;9.00;;;10.70;99.90;;;;;;5075312;28;20585;-65
2024/02/03 12:35:12;;;;;;;9.50;8.60;;;10.70;99.90;;;;;;5078840;28;20482;-65
2024/02/03 12:37:39;;;;;;;9.80;7.37;;;10.80;99.90;;;;;;5078823;28;20436;-65
2024/02/03 12:40:07;;;;;;;9.83;8.20;;;10.80;99.90;;;;;;5078995;28;20443;-67
2024/02/03 12:42:35;;;;;;;9.37;8.40;;;10.90;99.90;;;;;;5079067;28;20455;-64
2024/02/03 12:45:04;;;;;;;11.23;9.70;;;10.90;99.90;;;;;;5078579;28;20443;-64
2024/02/03 12:47:31;;;;;;;15.10;9.00;;;10.90;99.90;;;;;;5079031;28;20541;-64